Time;durP1;ratioP1;P1;durP2;ratioP2;P2;SDS_P1;SDS_P2;PMS_P1;PMS_P2;Temp;Humidity;BMP_temperature;BMP_pressure;BME280_temperature;BME280_humidity;BME280_pressure;Samples;Min_cycle;Max_cycle;Signal;HPM_P1;HPM_P2
2023/01/31 05:00:54;;;;;;;;;;;2.70;99.90;;;;;;5668450;23;19935;-75
2023/01/31 05:03:21;;;;;;;;;;;2.60;99.90;;;;;;4926834;29;19931;-75
2023/01/31 05:05:48;;;;;;;;;;;2.50;99.90;;;;;;4932255;29;19938;-76
2023/01/31 05:08:15;;;;;;;;;;;2.40;99.90;;;;;;4920087;29;20303;-75
2023/01/31 05:10:42;;;;;;;;;;;4.00;99.90;;;;;;4907687;29;20054;-75
2023/01/31 05:13:09;;;;;;;;;;;2.50;99.90;;;;;;4911422;29;19942;-75
2023/01/31 05:15:37;;;;;;;;;;;2.50;99.90;;;;;;4913340;29;19978;-76
2023/01/31 05:18:04;;;;;;;;;;;2.50;99.90;;;;;;4910519;29;19935;-73
2023/01/31 05:20:33;;;;;;;;;;;2.60;99.90;;;;;;4912525;29;20327;-75
2023/01/31 05:23:01;;;;;;;;;;;3.00;99.90;;;;;;4905312;29;19938;-73
2023/01/31 05:25:27;;;;;;;;;;;2.60;99.90;;;;;;4909049;29;19931;-72
2023/01/31 05:27:54;;;;;;;;;;;2.30;99.90;;;;;;4889477;29;19979;-71
2023/01/31 05:30:23;;;;;;;;;;;2.50;99.90;;;;;;4906254;29;19931;-72
2023/01/31 05:32:50;;;;;;;;;;;4.60;99.90;;;;;;4903262;29;19935;-71
2023/01/31 05:35:17;;;;;;;;;;;2.50;99.90;;;;;;4891850;29;19961;-71
2023/01/31 05:37:45;;;;;;;;;;;2.40;99.90;;;;;;4908083;29;19931;-71
2023/01/31 05:40:12;;;;;;;;;;;2.50;99.90;;;;;;4908139;29;19949;-70
2023/01/31 05:42:39;;;;;;;;;;;2.40;99.90;;;;;;4886584;29;19939;-72
2023/01/31 05:45:08;;;;;;;;;;;2.40;99.90;;;;;;4897988;29;19938;-72
2023/01/31 05:47:35;;;;;;;;;;;2.40;99.90;;;;;;4896114;29;19931;-73
2023/01/31 05:50:01;;;;;;;;;;;4.90;99.90;;;;;;4911583;29;19935;-73
2023/01/31 05:52:28;;;;;;;;;;;2.40;99.90;;;;;;4910599;29;20421;-72
2023/01/31 05:54:55;;;;;;;;;;;2.20;99.90;;;;;;4911768;29;19931;-73
2023/01/31 05:57:22;;;;;;;;;;;2.10;99.90;;;;;;4896680;29;19931;-72
2023/01/31 05:59:50;;;;;;;;;;;2.40;99.90;;;;;;4912072;29;20434;-72
2023/01/31 06:02:16;;;;;;;;;;;2.40;99.90;;;;;;4912068;29;19970;-72
2023/01/31 06:04:43;;;;;;;;;;;2.40;99.90;;;;;;4901945;29;20614;-73
2023/01/31 06:07:10;;;;;;;;;;;2.70;99.90;;;;;;4899667;29;20524;-73
2023/01/31 06:09:37;;;;;;;;;;;2.30;99.90;;;;;;4920534;29;19931;-72
2023/01/31 06:12:04;;;;;;;;;;;2.40;99.90;;;;;;4911757;29;19942;-72
2023/01/31 06:14:32;;;;;;;;;;;2.40;99.90;;;;;;4911780;29;20025;-72
2023/01/31 06:16:58;;;;;;;;;;;2.30;99.90;;;;;;4930589;29;19926;-73
2023/01/31 06:19:26;;;;;;;;;;;3.30;99.90;;;;;;4930927;29;19930;-73
2023/01/31 06:21:52;;;;;;;;;;;2.20;99.90;;;;;;4903802;29;19963;-72
2023/01/31 06:24:20;;;;;;;;;;;2.40;99.90;;;;;;4913763;29;19934;-74
2023/01/31 06:26:46;;;;;;;;;;;2.30;99.90;;;;;;4911677;29;19927;-72
2023/01/31 06:29:13;;;;;;;;;;;2.20;99.90;;;;;;4928361;29;19927;-73
2023/01/31 06:31:44;;;;;;;;;;;3.90;99.90;;;;;;4921674;29;19931;-73
2023/01/31 06:34:11;;;;;;;;;;;2.20;99.90;;;;;;4928980;29;19978;-73
2023/01/31 06:36:37;;;;;;;;;;;3.80;99.90;;;;;;4930924;29;19970;-73
2023/01/31 06:39:04;;;;;;;;;;;4.30;99.90;;;;;;4913902;29;19934;-73
2023/01/31 06:41:31;;;;;;;;;;;2.40;99.90;;;;;;4895444;29;19963;-73
2023/01/31 06:43:58;;;;;;;;;;;2.40;99.90;;;;;;4910845;29;19931;-73
2023/01/31 06:46:25;;;;;;;;;;;3.20;99.90;;;;;;4910749;29;20307;-73
2023/01/31 06:48:52;;;;;;;;;;;2.70;99.90;;;;;;4927085;29;19940;-73
2023/01/31 06:51:19;;;;;;;;;;;2.30;99.90;;;;;;4910833;29;20033;-73
2023/01/31 06:53:46;;;;;;;;;;;3.90;99.90;;;;;;4911708;29;19931;-73
2023/01/31 06:56:12;;;;;;;;;;;2.20;99.90;;;;;;4912868;29;20009;-72
2023/01/31 06:58:40;;;;;;;;;;;4.30;99.90;;;;;;4912503;29;19978;-73
2023/01/31 07:01:08;;;;;;;;;;;2.40;99.90;;;;;;4913498;29;19967;-72
2023/01/31 07:03:34;;;;;;;;;;;2.30;99.90;;;;;;4921935;29;19927;-73
2023/01/31 07:06:01;;;;;;;;;;;2.30;99.90;;;;;;4912786;29;19931;-73
2023/01/31 07:08:28;;;;;;;;;;;2.40;99.90;;;;;;4912281;29;19962;-73
2023/01/31 07:10:56;;;;;;;;;;;4.30;99.90;;;;;;4911432;29;19993;-73
2023/01/31 07:13:22;;;;;;;;;;;3.30;99.90;;;;;;4890444;29;19930;-72
2023/01/31 07:15:49;;;;;;;;;;;4.10;99.90;;;;;;4911338;29;19927;-73
2023/01/31 07:18:17;;;;;;;;;;;2.20;99.90;;;;;;4898790;29;19931;-73
2023/01/31 07:20:44;;;;;;;;;;;2.10;99.90;;;;;;4895291;29;19981;-73
2023/01/31 07:23:11;;;;;;;;;;;2.10;99.90;;;;;;4912525;29;20072;-73
2023/01/31 07:25:37;;;;;;;;;;;2.20;99.90;;;;;;4895511;29;19931;-73
2023/01/31 07:28:04;;;;;;;;;;;2.30;99.90;;;;;;4911098;29;20396;-73
2023/01/31 07:30:34;;;;;;;;;;;4.10;99.90;;;;;;4910623;29;20366;-73
2023/01/31 07:33:01;;;;;;;;;;;2.40;99.90;;;;;;4905480;29;19931;-73
2023/01/31 07:35:28;;;;;;;;;;;2.40;99.90;;;;;;4910775;29;20793;-73
2023/01/31 07:37:55;;;;;;;;;;;2.20;99.90;;;;;;4912375;29;19973;-73
2023/01/31 07:40:22;;;;;;;;;;;2.30;99.90;;;;;;4912090;29;19927;-73
2023/01/31 07:42:50;;;;;;;;;;;2.30;99.90;;;;;;4911027;29;19959;-73
2023/01/31 07:45:17;;;;;;;;;;;2.50;99.90;;;;;;4895752;29;19927;-73
2023/01/31 07:47:59;;;;;;;;;;;2.40;99.90;;;;;;4912642;29;19927;-73
2023/01/31 07:50:28;;;;;;;;;;;2.30;99.90;;;;;;4911305;29;20631;-73
2023/01/31 07:52:56;;;;;;;;;;;2.40;99.90;;;;;;4911507;29;19933;-72
2023/01/31 07:55:23;;;;;;;;;;;3.10;99.90;;;;;;4895190;29;19970;-73
2023/01/31 07:57:50;;;;;;;;;;;2.40;99.90;;;;;;4896958;29;19935;-73
2023/01/31 08:05:48;;;;;;;;;;;3.30;99.90;;;;;;4915945;29;20026;-73
2023/01/31 08:08:14;;;;;;;;;;;2.50;99.90;;;;;;4914679;29;20352;-73
2023/01/31 08:10:41;;;;;;;;;;;2.60;99.90;;;;;;4898532;29;19931;-73
2023/01/31 08:13:10;;;;;;;;;;;2.60;99.90;;;;;;4899172;29;19930;-73
2023/01/31 08:15:37;;;;;;;;;;;2.50;99.90;;;;;;4899053;29;19931;-73
2023/01/31 08:18:04;;;;;;;;;;;5.10;99.90;;;;;;4898929;29;19959;-73
2023/01/31 08:20:32;;;;;;;;;;;2.60;99.90;;;;;;4882808;29;19927;-73
2023/01/31 08:22:59;;;;;;;;;;;4.00;99.90;;;;;;4914379;29;19954;-73
2023/01/31 08:25:27;;;;;;;;;;;3.00;99.90;;;;;;4915530;29;19931;-73
2023/01/31 08:27:58;;;;;;;;;;;2.50;99.90;;;;;;4930265;29;19987;-74
2023/01/31 08:30:25;;;;;;;;;;;2.70;99.90;;;;;;4914381;29;19975;-73
2023/01/31 08:32:52;;;;;;;;;;;2.70;99.90;;;;;;4915463;29;19962;-73
2023/01/31 08:35:18;;;;;;;;;;;2.60;99.90;;;;;;4896680;29;19931;-73
2023/01/31 08:37:45;;;;;;;;;;;3.10;99.90;;;;;;4914357;29;20030;-73
2023/01/31 08:40:13;;;;;;;;;;;2.60;99.90;;;;;;4898204;29;19930;-73
2023/01/31 08:42:40;;;;;;;;;;;2.90;99.90;;;;;;4921106;29;20428;-73
2023/01/31 08:45:07;;;;;;;;;;;3.30;99.90;;;;;;4943302;29;19927;-73
2023/01/31 08:47:35;;;;;;;;;;;3.30;99.90;;;;;;4917037;29;19930;-67
2023/01/31 08:50:02;;;;;;;;;;;3.40;99.90;;;;;;4932794;29;20403;-72
2023/01/31 08:52:34;;;;;;;;;;;3.40;99.90;;;;;;4903656;29;19931;-73
2023/01/31 08:55:01;;;;;;;;;;;3.50;99.90;;;;;;4914912;29;19935;-72
2023/01/31 08:57:28;;;;;;;;;;;3.80;99.90;;;;;;4913929;29;19931;-73
2023/01/31 08:59:55;;;;;;;;;;;3.60;99.90;;;;;;4914102;29;19927;-72
2023/01/31 09:02:21;;;;;;;;;;;3.90;99.90;;;;;;4929506;29;19931;-73
2023/01/31 09:04:49;;;;;;;;;;;4.40;99.90;;;;;;4931918;29;20011;-73
2023/01/31 09:07:20;;;;;;;;;;;4.00;99.90;;;;;;4932130;29;20654;-73
2023/01/31 09:09:47;;;;;;;;;;;6.20;99.90;;;;;;4932752;29;20433;-72
2023/01/31 09:12:14;;;;;;;;;;;4.10;99.90;;;;;;4926427;29;19926;-73
2023/01/31 09:14:41;;;;;;;;;;;4.30;99.90;;;;;;4931144;29;20334;-73
2023/01/31 09:17:09;;;;;;;;;;;4.40;99.90;;;;;;4916240;29;20331;-73
2023/01/31 09:19:36;;;;;;;;;;;4.70;99.90;;;;;;4933114;29;19931;-72
2023/01/31 09:22:04;;;;;;;;;;;4.00;99.90;;;;;;4921578;29;20006;-73
2023/01/31 09:24:31;;;;;;;;;;;4.20;99.90;;;;;;4913475;29;20026;-72
2023/01/31 09:26:58;;;;;;;;;;;4.30;99.90;;;;;;4913268;29;19986;-73
2023/01/31 09:29:25;;;;;;;;;;;4.20;99.90;;;;;;4919015;29;19939;-73
2023/01/31 09:31:52;;;;;;;;;;;5.40;99.90;;;;;;4930306;29;19946;-72
2023/01/31 09:34:21;;;;;;;;;;;5.60;99.90;;;;;;4916338;29;19970;-72
2023/01/31 09:36:47;;;;;;;;;;;4.30;99.90;;;;;;4932343;29;20002;-73
2023/01/31 09:39:14;;;;;;;;;;;4.40;99.90;;;;;;4932429;29;19930;-73
2023/01/31 09:41:50;;;;;;;;;;;5.30;99.90;;;;;;4930550;29;19978;-73
2023/01/31 09:44:21;;;;;;;;;;;4.00;99.90;;;;;;4915699;29;19933;-73
2023/01/31 09:46:49;;;;;;;;;;;4.10;99.90;;;;;;4915688;29;19990;-72
2023/01/31 09:49:26;;;;;;;;;;;4.20;99.90;;;;;;4931014;29;19982;-73
2023/01/31 09:51:54;;;;;;;;;;;4.30;99.90;;;;;;4923009;29;20492;-73
2023/01/31 09:54:24;;;;;;;;;;;4.40;99.90;;;;;;4912853;29;20440;-73
2023/01/31 09:56:56;;;;;;;;;;;5.00;99.90;;;;;;4912285;29;19978;-73
2023/01/31 09:59:24;;;;;;;;;;;4.80;99.90;;;;;;4920574;29;19931;-73
2023/01/31 10:01:55;;;;;;;;;;;6.10;99.90;;;;;;4925084;29;19939;-73
2023/01/31 10:04:38;;;;;;;;;;;4.70;99.90;;;;;;4877495;29;20422;-74
2023/01/31 10:07:05;;;;;;;;;;;4.70;99.90;;;;;;4894025;29;19928;-73
2023/01/31 10:09:35;;;;;;;;;;;5.60;99.90;;;;;;4879009;29;19932;-73
2023/01/31 10:12:05;;;;;;;;;;;4.90;99.90;;;;;;4902919;29;19934;-73
2023/01/31 10:14:33;;;;;;;;;;;4.70;99.90;;;;;;4902194;29;20522;-74
2023/01/31 10:17:03;;;;;;;;;;;4.90;99.90;;;;;;4913062;29;19986;-73
2023/01/31 10:19:31;;;;;;;;;;;4.90;99.90;;;;;;4912578;29;19927;-73
2023/01/31 10:22:00;;;;;;;;;;;7.00;99.90;;;;;;4924600;29;20312;-73
2023/01/31 10:24:53;;;;;;;;;;;5.70;99.90;;;;;;4893770;29;20393;-73
2023/01/31 10:27:29;;;;;;;;;;;5.30;99.90;;;;;;4897954;29;19927;-73
2023/01/31 10:29:56;;;;;;;;;;;5.60;99.90;;;;;;4911921;29;19938;-74
2023/01/31 10:32:25;;;;;;;;;;;5.50;99.90;;;;;;4912115;29;19947;-74
2023/01/31 10:35:03;;;;;;;;;;;5.70;99.90;;;;;;4912618;29;19983;-74
2023/01/31 10:37:38;;;;;;;;;;;5.80;99.90;;;;;;4912150;29;20029;-74
2023/01/31 10:40:18;;;;;;;;;;;5.80;99.90;;;;;;4912447;29;20602;-74
2023/01/31 10:42:47;;;;;;;;;;;6.00;99.90;;;;;;4912253;29;20376;-74
2023/01/31 10:45:17;;;;;;;;;;;7.50;99.90;;;;;;4912285;29;20655;-74
2023/01/31 10:47:47;;;;;;;;;;;6.20;99.70;;;;;;4896902;29;20466;-73
2023/01/31 10:50:28;;;;;;;;;;;6.20;99.20;;;;;;4911734;29;20435;-74
2023/01/31 10:53:14;;;;;;;;;;;6.20;99.50;;;;;;4896472;29;19931;-73
2023/01/31 10:56:07;;;;;;;;;;;6.20;99.40;;;;;;4927995;29;20403;-74
2023/01/31 10:58:34;;;;;;;;;;;6.20;99.30;;;;;;4909789;29;19937;-73
2023/01/31 11:01:02;;;;;;;;;;;6.50;99.70;;;;;;4911635;29;20482;-73
2023/01/31 11:03:29;;;;;;;;;;;6.30;99.50;;;;;;4913060;29;19938;-74
2023/01/31 11:05:56;;;;;;;;;;;8.30;99.70;;;;;;4913093;29;19934;-73
2023/01/31 11:08:39;;;;;;;;;;;6.30;99.20;;;;;;4895983;29;19927;-73
2023/01/31 11:11:08;;;;;;;;;;;6.10;99.30;;;;;;4895589;29;19938;-74
2023/01/31 11:13:34;;;;;;;;;;;5.90;99.40;;;;;;4895806;29;20414;-73
2023/01/31 11:16:02;;;;;;;;;;;6.00;99.80;;;;;;4909580;29;19935;-73
2023/01/31 11:18:30;;;;;;;;;;;5.90;99.70;;;;;;4911828;29;20350;-74
2023/01/31 11:21:00;;;;;;;;;;;6.30;99.70;;;;;;4911762;29;20018;-73
2023/01/31 11:23:28;;;;;;;;;;;6.00;99.80;;;;;;4895502;29;20571;-74
2023/01/31 11:25:55;;;;;;;;;;;5.70;99.90;;;;;;4893722;29;19935;-73
2023/01/31 11:28:28;;;;;;;;;;;7.20;99.90;;;;;;4911559;29;19927;-73
2023/01/31 11:30:55;;;;;;;;;;;5.50;99.90;;;;;;4913879;29;20414;-73
2023/01/31 11:33:40;;;;;;;;;;;5.60;99.90;;;;;;4911948;29;20453;-73
2023/01/31 11:36:08;;;;;;;;;;;5.40;99.90;;;;;;4912083;29;20014;-73
2023/01/31 11:38:35;;;;;;;;;;;5.50;99.90;;;;;;4911198;29;20599;-73
2023/01/31 11:41:07;;;;;;;;;;;5.40;99.90;;;;;;4910950;29;19938;-74
2023/01/31 11:43:34;;;;;;;;;;;5.40;99.90;;;;;;4911182;29;20610;-74
2023/01/31 11:46:02;;;;;;;;;;;6.40;99.90;;;;;;4911448;29;19931;-74
2023/01/31 11:48:39;;;;;;;;;;;5.60;99.90;;;;;;4911195;29;19927;-73
2023/01/31 11:51:06;;;;;;;;;;;5.30;99.90;;;;;;4911512;29;19987;-74
2023/01/31 11:53:42;;;;;;;;;;;5.30;99.90;;;;;;4911144;29;20400;-73
2023/01/31 11:56:13;;;;;;;;;;;5.40;99.90;;;;;;4913256;29;20352;-73
2023/01/31 11:58:40;;;;;;;;;;;5.50;99.90;;;;;;4896087;29;19927;-73
2023/01/31 12:01:12;;;;;;;;;;;5.60;99.90;;;;;;4926747;29;19931;-74
2023/01/31 12:03:39;;;;;;;;;;;5.60;99.90;;;;;;4905304;29;19931;-74
2023/01/31 12:06:28;;;;;;;;;;;5.60;99.90;;;;;;4911234;29;20033;-74
2023/01/31 12:08:55;;;;;;;;;;;5.30;99.90;;;;;;4911536;29;19956;-74
2023/01/31 12:11:30;;;;;;;;;;;5.30;99.90;;;;;;4910495;29;19934;-73
2023/01/31 12:14:10;;;;;;;;;;;5.40;99.90;;;;;;4910924;29;19937;-73
2023/01/31 12:16:37;;;;;;;;;;;5.30;99.90;;;;;;4895477;29;19931;-73
2023/01/31 12:19:10;;;;;;;;;;;5.30;99.90;;;;;;4895328;29;19938;-73
2023/01/31 12:21:56;;;;;;;;;;;5.30;99.90;;;;;;4911975;29;19931;-73
2023/01/31 12:24:22;;;;;;;;;;;5.40;99.90;;;;;;4911017;29;19957;-74
2023/01/31 12:26:57;;;;;;;;;;;5.40;99.90;;;;;;4912171;29;20033;-74
2023/01/31 12:29:43;;;;;;;;;;;5.50;99.90;;;;;;4895536;29;20029;-73
2023/01/31 12:32:16;;;;;;;;;;;5.50;99.90;;;;;;4911912;29;19931;-73
2023/01/31 12:34:46;;;;;;;;;;;5.40;99.90;;;;;;4912496;29;19942;-73
2023/01/31 12:37:53;;;;;;;;;;;5.40;99.90;;;;;;4911323;29;20328;-74
2023/01/31 12:40:32;;;;;;;;;;;5.60;99.90;;;;;;4895779;29;19983;-74
2023/01/31 12:43:00;;;;;;;;;;;5.30;99.90;;;;;;4907861;29;19990;-73
2023/01/31 12:45:30;;;;;;;;;;;6.70;99.90;;;;;;4898274;29;20411;-73
2023/01/31 12:48:02;;;;;;;;;;;5.30;99.90;;;;;;4915599;29;19962;-73
2023/01/31 12:50:41;;;;;;;;;;;5.40;99.90;;;;;;4914064;29;19931;-73
2023/01/31 12:53:11;;;;;;;;;;;5.40;99.90;;;;;;4913822;29;19935;-74
2023/01/31 12:55:41;;;;;;;;;;;5.30;99.90;;;;;;4929623;29;19934;-73
2023/01/31 12:58:11;;;;;;;;;;;5.30;99.90;;;;;;4898189;29;19938;-73
2023/01/31 13:00:50;;;;;;;;;;;5.30;99.90;;;;;;4914957;29;19954;-74
2023/01/31 13:03:29;;;;;;;;;;;5.30;99.90;;;;;;4930662;29;19931;-73
2023/01/31 13:06:05;;;;;;;;;;;5.30;99.90;;;;;;4932415;29;19931;-74
2023/01/31 13:08:34;;;;;;;;;;;5.20;99.90;;;;;;4929055;29;20439;-73
2023/01/31 13:11:03;;;;;;;;;;;5.30;99.90;;;;;;4933804;29;20592;-74
2023/01/31 13:13:32;;;;;;;;;;;6.10;99.90;;;;;;4928247;29;20032;-74
2023/01/31 13:16:04;;;;;;;;;;;5.20;99.90;;;;;;4899459;29;19935;-73
2023/01/31 13:18:32;;;;;;;;;;;6.60;99.90;;;;;;4928340;29;19935;-74
2023/01/31 13:21:03;;;;;;;;;;;6.20;99.90;;;;;;4933717;29;19985;-72
2023/01/31 13:23:38;;;;;;;;;;;5.40;99.90;;;;;;4924131;29;19938;-75
2023/01/31 13:26:10;;;;;;;;;;;5.30;99.90;;;;;;4912233;29;20443;-75
2023/01/31 13:28:39;;;;;;;;;;;5.30;99.90;;;;;;4880624;29;19931;-75
2023/01/31 13:31:13;;;;;;;;;;;5.30;99.90;;;;;;4889340;29;20444;-75
2023/01/31 13:33:43;;;;;;;;;;;5.30;99.90;;;;;;4877166;29;19927;-75
2023/01/31 13:36:14;;;;;;;;;;;5.40;99.90;;;;;;4875904;29;19938;-75
2023/01/31 13:38:42;;;;;;;;;;;5.80;99.90;;;;;;4871696;29;20397;-75
2023/01/31 13:41:19;;;;;;;;;;;5.30;99.90;;;;;;4843212;29;20660;-74
2023/01/31 13:43:46;;;;;;;;;;;5.20;99.90;;;;;;4864270;29;20044;-75
2023/01/31 13:46:13;;;;;;;;;;;5.20;99.90;;;;;;4906533;29;20084;-76
2023/01/31 13:48:59;;;;;;;;;;;5.30;99.90;;;;;;4894997;29;19935;-75
2023/01/31 13:51:29;;;;;;;;;;;5.10;99.90;;;;;;4876681;29;20567;-75
2023/01/31 13:54:14;;;;;;;;;;;5.30;99.90;;;;;;4875040;29;19974;-75
2023/01/31 13:56:41;;;;;;;;;;;5.20;99.90;;;;;;4900504;29;19934;-75
2023/01/31 13:59:09;;;;;;;;;;;6.80;99.90;;;;;;4916755;29;19967;-75
2023/01/31 14:01:42;;;;;;;;;;;5.00;99.90;;;;;;4922688;29;19937;-74
2023/01/31 14:04:10;;;;;;;;;;;5.30;99.90;;;;;;4930708;29;20306;-75
2023/01/31 14:09:23;;;;;;;;;;;5.40;99.80;;;;;;4918677;29;19942;-75
2023/01/31 14:11:50;;;;;;;;;;;5.40;99.80;;;;;;4926181;29;21082;-75
2023/01/31 14:14:28;;;;;;;;;;;5.40;99.90;;;;;;4927469;29;19997;-75
2023/01/31 14:16:56;;;;;;;;;;;5.30;99.90;;;;;;4911849;29;19930;-75
2023/01/31 14:19:23;;;;;;;;;;;5.40;99.90;;;;;;4899120;29;19952;-74
2023/01/31 14:22:02;;;;;;;;;;;6.50;99.90;;;;;;4929126;29;19927;-74
2023/01/31 14:24:58;;;;;;;;;;;5.40;99.90;;;;;;4912654;29;19934;-74
2023/01/31 14:27:45;;;;;;;;;;;5.60;99.90;;;;;;4914273;29;19931;-74
2023/01/31 14:30:15;;;;;;;;;;;5.50;99.90;;;;;;4928816;29;20343;-74
2023/01/31 14:33:00;;;;;;;;;;;5.50;99.90;;;;;;4933859;29;19939;-75
2023/01/31 14:35:35;;;;;;;;;;;5.50;99.90;;;;;;4930108;29;19931;-74
2023/01/31 14:38:20;;;;;;;;;;;5.50;99.90;;;;;;4932146;29;19945;-74
2023/01/31 14:41:07;;;;;;;;;;;5.40;99.90;;;;;;4947520;29;19982;-75
2023/01/31 14:43:34;;;;;;;;;;;5.50;99.90;;;;;;4898810;29;20454;-76
2023/01/31 14:46:10;;;;;;;;;;;7.00;99.90;;;;;;4914309;29;20060;-75
2023/01/31 14:48:56;;;;;;;;;;;5.40;99.90;;;;;;4912963;29;19938;-75
2023/01/31 14:51:25;;;;;;;;;;;5.40;99.90;;;;;;4913095;29;19935;-75
2023/01/31 14:53:58;;;;;;;;;;;5.60;99.90;;;;;;4909955;29;19942;-76
2023/01/31 14:56:26;;;;;;;;;;;5.50;99.90;;;;;;4913821;29;19927;-75
2023/01/31 14:58:53;;;;;;;;;;;5.60;99.90;;;;;;4912704;29;19931;-75
2023/01/31 15:01:20;;;;;;;;;;;5.50;99.90;;;;;;4912107;29;20021;-75
2023/01/31 15:03:51;;;;;;;;;;;6.90;99.90;;;;;;4911395;29;19991;-75
2023/01/31 15:06:22;;;;;;;;;;;7.40;99.90;;;;;;4911686;29;19966;-75
2023/01/31 15:08:50;;;;;;;;;;;5.80;99.90;;;;;;4912793;29;19957;-75
2023/01/31 15:11:36;;;;;;;;;;;5.70;99.90;;;;;;4911332;29;20315;-75
2023/01/31 15:14:28;;;;;;;;;;;5.70;99.90;;;;;;4903472;29;19927;-73
2023/01/31 15:17:10;;;;;;;;;;;5.80;99.90;;;;;;4912855;29;20518;-76
2023/01/31 15:20:03;;;;;;;;;;;6.20;99.90;;;;;;4912508;29;19931;-73
2023/01/31 15:22:30;;;;;;;;;;;6.20;99.80;;;;;;4912777;29;20255;-73
2023/01/31 15:25:00;;;;;;;;;;;7.70;99.90;;;;;;4896029;29;19927;-74
2023/01/31 15:27:28;;;;;;;;;;;6.10;99.70;;;;;;4896380;29;19931;-73
2023/01/31 15:29:55;;;;;;;;;;;6.10;99.90;;;;;;4909917;29;19927;-74
2023/01/31 15:32:25;;;;;;;;;;;6.00;99.90;;;;;;4911419;29;19934;-73
2023/01/31 15:35:01;;;;;;;;;;;6.00;99.90;;;;;;4911076;29;20015;-74
2023/01/31 15:37:30;;;;;;;;;;;6.00;99.90;;;;;;4895167;29;19977;-73
2023/01/31 15:40:16;;;;;;;;;;;6.10;99.90;;;;;;4910921;29;20232;-73
2023/01/31 15:42:43;;;;;;;;;;;6.00;99.90;;;;;;4911126;29;19942;-73
2023/01/31 15:45:15;;;;;;;;;;;5.90;99.90;;;;;;4911427;29;19938;-73
2023/01/31 15:47:43;;;;;;;;;;;5.90;99.90;;;;;;4929720;29;19973;-73
2023/01/31 15:50:17;;;;;;;;;;;5.90;99.90;;;;;;4929498;29;20015;-74
2023/01/31 15:52:44;;;;;;;;;;;6.10;99.90;;;;;;4920197;29;19935;-74
2023/01/31 15:55:12;;;;;;;;;;;6.10;99.90;;;;;;4929291;29;19938;-74
2023/01/31 15:57:51;;;;;;;;;;;6.00;99.90;;;;;;4929942;29;19931;-74
2023/01/31 16:00:35;;;;;;;;;;;5.90;99.90;;;;;;4914718;29;19930;-74
2023/01/31 16:03:02;;;;;;;;;;;6.00;99.90;;;;;;4902139;29;20370;-73
2023/01/31 16:05:33;;;;;;;;;;;6.40;99.90;;;;;;4895194;29;20319;-74
2023/01/31 16:08:01;;;;;;;;;;;6.10;99.90;;;;;;4914520;29;20001;-73
2023/01/31 16:10:28;;;;;;;;;;;6.10;99.90;;;;;;4909864;29;19935;-74
2023/01/31 16:12:55;;;;;;;;;;;6.00;99.90;;;;;;4908024;29;19978;-73
2023/01/31 16:15:26;;;;;;;;;;;6.40;99.90;;;;;;4894350;29;20372;-74
2023/01/31 16:17:54;;;;;;;;;;;6.00;99.90;;;;;;4910078;29;19935;-74
2023/01/31 16:20:33;;;;;;;;;;;6.10;99.90;;;;;;4913847;29;20038;-74
2023/01/31 16:23:00;;;;;;;;;;;6.00;99.90;;;;;;4913572;29;19934;-74
2023/01/31 16:25:26;;;;;;;;;;;6.20;99.90;;;;;;4913852;29;20296;-74
2023/01/31 16:27:58;;;;;;;;;;;6.20;99.90;;;;;;4914654;29;20042;-74
2023/01/31 16:30:25;;;;;;;;;;;6.20;99.90;;;;;;4912288;29;19931;-73
2023/01/31 16:32:53;;;;;;;;;;;6.10;99.90;;;;;;4913089;29;19966;-73
2023/01/31 16:35:24;;;;;;;;;;;6.00;99.90;;;;;;4913380;29;20471;-74
2023/01/31 16:38:03;;;;;;;;;;;6.10;99.90;;;;;;4908821;29;20316;-74
2023/01/31 16:40:33;;;;;;;;;;;6.10;99.90;;;;;;4912155;29;19931;-73
2023/01/31 16:43:10;;;;;;;;;;;6.20;99.90;;;;;;4912339;29;20320;-73
2023/01/31 16:45:37;;;;;;;;;;;6.10;99.90;;;;;;4914125;29;19939;-73
2023/01/31 16:48:31;;;;;;;;;;;6.20;99.90;;;;;;4914512;29;20344;-73
2023/01/31 16:50:59;;;;;;;;;;;6.20;99.90;;;;;;4926530;29;20273;-74
2023/01/31 16:53:30;;;;;;;;;;;6.10;99.90;;;;;;4897789;29;19937;-73
2023/01/31 16:56:15;;;;;;;;;;;6.10;99.90;;;;;;4897734;29;19952;-73
2023/01/31 16:58:46;;;;;;;;;;;6.20;99.90;;;;;;4911287;29;19931;-73
2023/01/31 17:01:32;;;;;;;;;;;6.10;99.90;;;;;;4914518;29;20273;-73
2023/01/31 17:03:59;;;;;;;;;;;6.00;99.90;;;;;;4913155;29;19927;-74
2023/01/31 17:06:26;;;;;;;;;;;6.60;99.90;;;;;;4915128;29;19937;-74
2023/01/31 17:08:54;;;;;;;;;;;6.10;99.90;;;;;;4917538;29;19935;-73
2023/01/31 17:11:20;;;;;;;;;;;7.00;99.90;;;;;;4927764;29;20521;-73
2023/01/31 17:14:07;;;;;;;;;;;6.20;99.90;;;;;;4896340;29;19932;-73
2023/01/31 17:16:35;;;;;;;;;;;6.10;99.90;;;;;;4903095;29;19927;-73
2023/01/31 17:19:02;;;;;;;;;;;6.20;99.90;;;;;;4913776;29;19939;-73
2023/01/31 17:21:30;;;;;;;;;;;6.10;99.90;;;;;;4913299;29;19931;-73
2023/01/31 17:23:58;;;;;;;;;;;6.20;99.90;;;;;;4912952;29;20303;-73
2023/01/31 17:26:25;;;;;;;;;;;6.20;99.90;;;;;;4913433;29;19962;-73
2023/01/31 17:28:53;;;;;;;;;;;6.40;99.90;;;;;;4914524;29;20006;-73
2023/01/31 17:31:28;;;;;;;;;;;6.10;99.90;;;;;;4922213;29;19942;-73
2023/01/31 17:33:55;;;;;;;;;;;6.10;99.90;;;;;;4929319;29;19926;-74
2023/01/31 17:36:22;;;;;;;;;;;6.50;99.90;;;;;;4914025;29;20345;-73
2023/01/31 17:38:48;;;;;;;;;;;6.20;99.90;;;;;;4911593;29;20021;-73
2023/01/31 17:41:17;;;;;;;;;;;6.30;99.90;;;;;;4901053;29;20018;-73
2023/01/31 17:43:44;;;;;;;;;;;6.10;99.90;;;;;;4916004;29;20377;-73
2023/01/31 17:46:11;;;;;;;;;;;6.00;99.90;;;;;;4917047;29;20025;-73
2023/01/31 17:48:39;;;;;;;;;;;6.20;99.90;;;;;;4925211;29;20311;-74
2023/01/31 17:51:07;;;;;;;;;;;6.00;99.90;;;;;;4907667;29;19926;-74
2023/01/31 17:53:35;;;;;;;;;;;6.10;99.90;;;;;;4922444;29;20363;-73
2023/01/31 17:56:14;;;;;;;;;;;6.10;99.90;;;;;;4931802;29;19931;-74
2023/01/31 17:58:41;;;;;;;;;;;6.30;99.90;;;;;;4929149;29;19941;-73
2023/01/31 18:01:09;;;;;;;;;;;6.10;99.90;;;;;;4930912;29;20631;-73
2023/01/31 18:03:36;;;;;;;;;;;6.10;99.90;;;;;;4900919;29;19931;-74
2023/01/31 18:06:04;;;;;;;;;;;6.10;99.90;;;;;;4912770;29;19986;-73
2023/01/31 18:08:32;;;;;;;;;;;6.20;99.90;;;;;;4925671;29;20050;-72
2023/01/31 18:11:09;;;;;;;;;;;6.20;99.90;;;;;;4917296;29;19983;-73
2023/01/31 18:13:37;;;;;;;;;;;6.20;99.90;;;;;;4911451;29;20348;-73
2023/01/31 18:16:07;;;;;;;;;;;6.20;99.90;;;;;;4913256;29;19990;-73
2023/01/31 18:18:34;;;;;;;;;;;6.20;99.90;;;;;;4928425;29;19935;-73
2023/01/31 18:21:01;;;;;;;;;;;6.20;99.90;;;;;;4916285;29;19938;-73
2023/01/31 18:23:28;;;;;;;;;;;6.30;99.90;;;;;;4912106;29;20021;-73
2023/01/31 18:25:55;;;;;;;;;;;6.30;99.90;;;;;;4908053;29;19931;-75
2023/01/31 18:28:22;;;;;;;;;;;6.20;99.90;;;;;;4910989;29;19931;-74
2023/01/31 18:30:50;;;;;;;;;;;6.20;99.90;;;;;;4926193;29;20021;-75
2023/01/31 18:33:17;;;;;;;;;;;6.30;99.90;;;;;;4898764;29;19931;-75
2023/01/31 18:35:44;;;;;;;;;;;8.10;99.90;;;;;;4918739;29;19962;-74
2023/01/31 18:38:12;;;;;;;;;;;7.90;99.90;;;;;;4921430;29;19931;-75
2023/01/31 18:40:39;;;;;;;;;;;6.20;99.90;;;;;;4916037;29;20315;-77
2023/01/31 18:43:06;;;;;;;;;;;6.20;99.90;;;;;;4898699;29;19938;-74
2023/01/31 18:45:32;;;;;;;;;;;6.10;99.90;;;;;;4906301;29;19994;-77
2023/01/31 18:47:59;;;;;;;;;;;7.90;99.90;;;;;;4910922;29;19935;-76
2023/01/31 18:50:26;;;;;;;;;;;6.10;99.90;;;;;;4911359;29;19938;-76
2023/01/31 18:52:55;;;;;;;;;;;6.20;99.90;;;;;;4896543;29;19927;-74
2023/01/31 18:55:21;;;;;;;;;;;6.20;99.90;;;;;;4912617;29;19938;-74
2023/01/31 18:57:49;;;;;;;;;;;7.90;99.90;;;;;;4927366;29;19927;-74
2023/01/31 19:00:16;;;;;;;;;;;6.20;99.90;;;;;;4904842;29;19934;-75
2023/01/31 19:02:47;;;;;;;;;;;6.20;99.90;;;;;;4910561;29;19927;-75
2023/01/31 19:05:14;;;;;;;;;;;6.50;99.90;;;;;;4912421;29;19931;-74
2023/01/31 19:07:41;;;;;;;;;;;6.00;99.90;;;;;;4913306;29;19927;-74
2023/01/31 19:10:08;;;;;;;;;;;6.10;99.90;;;;;;4891833;29;20327;-74
2023/01/31 19:12:38;;;;;;;;;;;6.20;99.90;;;;;;4894193;29;19974;-74
2023/01/31 19:15:06;;;;;;;;;;;4.20;99.90;;;;;;4910291;29;19982;-73
2023/01/31 19:17:33;;;;;;;;;;;6.10;99.90;;;;;;4913069;29;19938;-74
2023/01/31 19:20:00;;;;;;;;;;;6.10;99.90;;;;;;4912260;29;20002;-74
2023/01/31 19:22:27;;;;;;;;;;;6.10;99.90;;;;;;4895891;29;19931;-74
2023/01/31 19:24:57;;;;;;;;;;;6.10;99.90;;;;;;4911498;29;21439;-74
2023/01/31 19:27:25;;;;;;;;;;;8.50;99.90;;;;;;4864522;29;19927;-74
2023/01/31 19:29:52;;;;;;;;;;;6.30;99.90;;;;;;4912634;29;19934;-76
2023/01/31 19:32:21;;;;;;;;;;;6.20;99.90;;;;;;4912534;29;19973;-73
2023/01/31 19:34:48;;;;;;;;;;;6.20;99.90;;;;;;4913414;29;19977;-73
2023/01/31 19:37:15;;;;;;;;;;;6.10;99.90;;;;;;4912192;29;19962;-74
2023/01/31 19:39:41;;;;;;;;;;;6.10;99.90;;;;;;4856502;29;19980;-74
2023/01/31 19:42:08;;;;;;;;;;;8.60;99.90;;;;;;4851776;29;20374;-74
2023/01/31 19:44:36;;;;;;;;;;;7.00;99.90;;;;;;4825994;29;20097;-74
2023/01/31 19:47:03;;;;;;;;;;;6.10;99.90;;;;;;4848351;29;19936;-73
2023/01/31 19:49:32;;;;;;;;;;;6.20;99.90;;;;;;4847459;29;20002;-72
2023/01/31 19:52:00;;;;;;;;;;;8.20;99.90;;;;;;4843943;29;20058;-74
2023/01/31 19:54:28;;;;;;;;;;;6.30;99.90;;;;;;4816408;29;19961;-73
2023/01/31 19:56:57;;;;;;;;;;;6.10;99.90;;;;;;4841037;29;19932;-73